sensor_id;sensor_type;location;lat;lon;timestamp;P1;durP1;ratioP1;P2;durP2;ratioP2
49396;SDS011;35615;41.410;2.194;2023-06-22T00:03:10;34.28;;;9.70;;
49396;SDS011;35615;41.410;2.194;2023-06-22T00:05:38;36.05;;;10.75;;
49396;SDS011;35615;41.410;2.194;2023-06-22T00:08:05;25.35;;;10.25;;
49396;SDS011;35615;41.410;2.194;2023-06-22T00:10:33;29.75;;;11.35;;
49396;SDS011;35615;41.410;2.194;2023-06-22T00:13:00;42.88;;;11.48;;
49396;SDS011;35615;41.410;2.194;2023-06-22T00:15:28;41.40;;;10.32;;
49396;SDS011;35615;41.410;2.194;2023-06-22T00:17:55;38.17;;;11.55;;
49396;SDS011;35615;41.410;2.194;2023-06-22T00:20:26;38.08;;;11.63;;
49396;SDS011;35615;41.410;2.194;2023-06-22T00:22:58;37.65;;;10.85;;
49396;SDS011;35615;41.410;2.194;2023-06-22T00:25:26;37.35;;;11.82;;
49396;SDS011;35615;41.410;2.194;2023-06-22T00:27:53;39.17;;;10.85;;
49396;SDS011;35615;41.410;2.194;2023-06-22T00:30:21;37.30;;;11.00;;
49396;SDS011;35615;41.410;2.194;2023-06-22T00:32:48;29.10;;;10.48;;
49396;SDS011;35615;41.410;2.194;2023-06-22T00:35:15;27.80;;;10.23;;
49396;SDS011;35615;41.410;2.194;2023-06-22T00:37:43;32.15;;;10.40;;
49396;SDS011;35615;41.410;2.194;2023-06-22T00:40:10;45.13;;;11.43;;
49396;SDS011;35615;41.410;2.194;2023-06-22T00:42:38;39.53;;;11.48;;
49396;SDS011;35615;41.410;2.194;2023-06-22T00:45:07;35.63;;;11.00;;
49396;SDS011;35615;41.410;2.194;2023-06-22T00:47:35;34.28;;;11.25;;
49396;SDS011;35615;41.410;2.194;2023-06-22T00:50:03;43.70;;;11.25;;
49396;SDS011;35615;41.410;2.194;2023-06-22T00:52:34;43.13;;;11.68;;
49396;SDS011;35615;41.410;2.194;2023-06-22T00:55:02;34.05;;;10.90;;
49396;SDS011;35615;41.410;2.194;2023-06-22T00:57:33;40.47;;;10.85;;
49396;SDS011;35615;41.410;2.194;2023-06-22T01:03:30;34.05;;;11.40;;
49396;SDS011;35615;41.410;2.194;2023-06-22T01:05:59;36.33;;;12.10;;
49396;SDS011;35615;41.410;2.194;2023-06-22T01:08:44;33.92;;;11.68;;
49396;SDS011;35615;41.410;2.194;2023-06-22T01:11:23;32.65;;;11.43;;
49396;SDS011;35615;41.410;2.194;2023-06-22T01:14:00;33.90;;;12.00;;
49396;SDS011;35615;41.410;2.194;2023-06-22T01:16:46;40.83;;;12.10;;
49396;SDS011;35615;41.410;2.194;2023-06-22T01:22:05;27.35;;;10.40;;
49396;SDS011;35615;41.410;2.194;2023-06-22T01:29:59;36.72;;;11.18;;
49396;SDS011;35615;41.410;2.194;2023-06-22T01:32:31;38.80;;;12.40;;
49396;SDS011;35615;41.410;2.194;2023-06-22T01:35:01;38.00;;;11.75;;
49396;SDS011;35615;41.410;2.194;2023-06-22T01:37:34;38.22;;;11.60;;
49396;SDS011;35615;41.410;2.194;2023-06-22T01:40:04;40.80;;;11.30;;
49396;SDS011;35615;41.410;2.194;2023-06-22T01:42:32;37.17;;;11.43;;
49396;SDS011;35615;41.410;2.194;2023-06-22T01:45:01;32.95;;;12.35;;
49396;SDS011;35615;41.410;2.194;2023-06-22T01:47:29;29.30;;;10.18;;
49396;SDS011;35615;41.410;2.194;2023-06-22T01:49:57;24.40;;;10.57;;
49396;SDS011;35615;41.410;2.194;2023-06-22T01:52:24;37.17;;;10.98;;
49396;SDS011;35615;41.410;2.194;2023-06-22T01:54:52;27.33;;;10.00;;
49396;SDS011;35615;41.410;2.194;2023-06-22T01:57:19;35.95;;;10.32;;
49396;SDS011;35615;41.410;2.194;2023-06-22T02:02:44;28.90;;;9.90;;
49396;SDS011;35615;41.410;2.194;2023-06-22T02:05:16;35.25;;;10.27;;
49396;SDS011;35615;41.410;2.194;2023-06-22T02:07:47;29.42;;;10.38;;
49396;SDS011;35615;41.410;2.194;2023-06-22T02:10:20;26.25;;;10.77;;
49396;SDS011;35615;41.410;2.194;2023-06-22T02:12:48;31.77;;;11.25;;
49396;SDS011;35615;41.410;2.194;2023-06-22T02:15:18;32.55;;;9.80;;
49396;SDS011;35615;41.410;2.194;2023-06-22T02:17:46;26.30;;;9.77;;
49396;SDS011;35615;41.410;2.194;2023-06-22T02:20:15;29.08;;;9.45;;
49396;SDS011;35615;41.410;2.194;2023-06-22T02:22:42;32.05;;;11.98;;
49396;SDS011;35615;41.410;2.194;2023-06-22T02:25:13;27.80;;;10.13;;
49396;SDS011;35615;41.410;2.194;2023-06-22T02:27:45;38.17;;;11.10;;
49396;SDS011;35615;41.410;2.194;2023-06-22T02:30:12;39.25;;;12.00;;
49396;SDS011;35615;41.410;2.194;2023-06-22T02:32:42;33.97;;;10.63;;
49396;SDS011;35615;41.410;2.194;2023-06-22T02:35:10;38.72;;;10.85;;
49396;SDS011;35615;41.410;2.194;2023-06-22T02:37:38;51.22;;;11.88;;
49396;SDS011;35615;41.410;2.194;2023-06-22T02:40:08;34.13;;;10.73;;
49396;SDS011;35615;41.410;2.194;2023-06-22T02:42:39;35.53;;;12.60;;
49396;SDS011;35615;41.410;2.194;2023-06-22T02:45:07;44.22;;;11.00;;
49396;SDS011;35615;41.410;2.194;2023-06-22T02:47:35;27.45;;;10.98;;
49396;SDS011;35615;41.410;2.194;2023-06-22T02:50:02;40.78;;;11.98;;
49396;SDS011;35615;41.410;2.194;2023-06-22T02:52:32;35.60;;;10.90;;
49396;SDS011;35615;41.410;2.194;2023-06-22T02:55:01;31.42;;;10.13;;
49396;SDS011;35615;41.410;2.194;2023-06-22T02:57:29;39.80;;;11.15;;
49396;SDS011;35615;41.410;2.194;2023-06-22T02:59:56;29.88;;;11.25;;
49396;SDS011;35615;41.410;2.194;2023-06-22T03:02:39;36.30;;;10.80;;
49396;SDS011;35615;41.410;2.194;2023-06-22T03:05:07;39.55;;;12.15;;
49396;SDS011;35615;41.410;2.194;2023-06-22T03:07:36;33.03;;;10.90;;
49396;SDS011;35615;41.410;2.194;2023-06-22T03:10:04;34.08;;;11.10;;
49396;SDS011;35615;41.410;2.194;2023-06-22T03:12:32;33.35;;;10.50;;
49396;SDS011;35615;41.410;2.194;2023-06-22T03:14:59;31.27;;;10.68;;
49396;SDS011;35615;41.410;2.194;2023-06-22T03:17:27;35.28;;;10.88;;
49396;SDS011;35615;41.410;2.194;2023-06-22T03:19:55;30.70;;;10.70;;
49396;SDS011;35615;41.410;2.194;2023-06-22T03:22:24;30.05;;;10.48;;
49396;SDS011;35615;41.410;2.194;2023-06-22T03:24:52;32.08;;;10.82;;
49396;SDS011;35615;41.410;2.194;2023-06-22T03:27:19;30.92;;;11.43;;
49396;SDS011;35615;41.410;2.194;2023-06-22T03:29:47;28.15;;;10.00;;
49396;SDS011;35615;41.410;2.194;2023-06-22T03:32:14;33.67;;;9.57;;
49396;SDS011;35615;41.410;2.194;2023-06-22T03:34:41;28.23;;;10.02;;
49396;SDS011;35615;41.410;2.194;2023-06-22T03:37:14;34.10;;;10.38;;
49396;SDS011;35615;41.410;2.194;2023-06-22T03:39:41;43.92;;;10.38;;
49396;SDS011;35615;41.410;2.194;2023-06-22T03:42:08;28.65;;;8.93;;
49396;SDS011;35615;41.410;2.194;2023-06-22T03:44:36;30.65;;;9.98;;
49396;SDS011;35615;41.410;2.194;2023-06-22T03:47:05;31.65;;;9.68;;
49396;SDS011;35615;41.410;2.194;2023-06-22T03:49:35;24.92;;;9.32;;
49396;SDS011;35615;41.410;2.194;2023-06-22T03:52:03;32.80;;;9.95;;
49396;SDS011;35615;41.410;2.194;2023-06-22T03:54:33;25.80;;;8.70;;
49396;SDS011;35615;41.410;2.194;2023-06-22T03:57:00;34.13;;;9.60;;
49396;SDS011;35615;41.410;2.194;2023-06-22T03:59:28;31.27;;;10.23;;
49396;SDS011;35615;41.410;2.194;2023-06-22T04:01:55;29.55;;;8.98;;
49396;SDS011;35615;41.410;2.194;2023-06-22T04:04:22;32.40;;;10.55;;
49396;SDS011;35615;41.410;2.194;2023-06-22T04:06:50;28.95;;;9.30;;
49396;SDS011;35615;41.410;2.194;2023-06-22T04:09:18;27.80;;;9.95;;
49396;SDS011;35615;41.410;2.194;2023-06-22T04:11:48;26.02;;;9.68;;
49396;SDS011;35615;41.410;2.194;2023-06-22T04:14:15;35.60;;;10.93;;
49396;SDS011;35615;41.410;2.194;2023-06-22T04:16:42;24.50;;;8.70;;
49396;SDS011;35615;41.410;2.194;2023-06-22T04:19:10;25.27;;;8.95;;
49396;SDS011;35615;41.410;2.194;2023-06-22T04:21:43;24.10;;;8.90;;
49396;SDS011;35615;41.410;2.194;2023-06-22T04:24:15;23.23;;;10.33;;
49396;SDS011;35615;41.410;2.194;2023-06-22T04:26:42;30.05;;;8.98;;
49396;SDS011;35615;41.410;2.194;2023-06-22T04:29:12;29.83;;;9.10;;
49396;SDS011;35615;41.410;2.194;2023-06-22T04:31:41;26.77;;;9.55;;
49396;SDS011;35615;41.410;2.194;2023-06-22T04:34:08;22.02;;;8.38;;
49396;SDS011;35615;41.410;2.194;2023-06-22T04:36:36;42.08;;;10.07;;
49396;SDS011;35615;41.410;2.194;2023-06-22T04:39:07;27.95;;;9.13;;
49396;SDS011;35615;41.410;2.194;2023-06-22T04:41:39;25.92;;;7.55;;
49396;SDS011;35615;41.410;2.194;2023-06-22T04:44:13;12.85;;;5.45;;
49396;SDS011;35615;41.410;2.194;2023-06-22T04:46:54;14.15;;;4.75;;
49396;SDS011;35615;41.410;2.194;2023-06-22T04:49:51;10.90;;;3.53;;
49396;SDS011;35615;41.410;2.194;2023-06-22T04:52:19;10.88;;;4.28;;
49396;SDS011;35615;41.410;2.194;2023-06-22T04:54:48;11.07;;;3.38;;
49396;SDS011;35615;41.410;2.194;2023-06-22T04:57:17;5.28;;;3.00;;
49396;SDS011;35615;41.410;2.194;2023-06-22T04:59:44;10.30;;;3.60;;
49396;SDS011;35615;41.410;2.194;2023-06-22T05:02:12;10.13;;;3.63;;
49396;SDS011;35615;41.410;2.194;2023-06-22T05:04:39;10.80;;;4.22;;
49396;SDS011;35615;41.410;2.194;2023-06-22T05:07:07;12.13;;;3.30;;
49396;SDS011;35615;41.410;2.194;2023-06-22T05:09:35;12.82;;;3.63;;
49396;SDS011;35615;41.410;2.194;2023-06-22T05:12:03;9.40;;;3.38;;
49396;SDS011;35615;41.410;2.194;2023-06-22T05:14:34;12.25;;;3.63;;
49396;SDS011;35615;41.410;2.194;2023-06-22T05:17:01;7.63;;;3.35;;
49396;SDS011;35615;41.410;2.194;2023-06-22T05:19:31;11.65;;;3.97;;
49396;SDS011;35615;41.410;2.194;2023-06-22T05:22:01;12.15;;;4.07;;
49396;SDS011;35615;41.410;2.194;2023-06-22T05:24:28;9.60;;;3.80;;
49396;SDS011;35615;41.410;2.194;2023-06-22T05:27:00;10.23;;;3.45;;
49396;SDS011;35615;41.410;2.194;2023-06-22T05:29:27;8.50;;;3.60;;
49396;SDS011;35615;41.410;2.194;2023-06-22T05:31:54;9.38;;;3.95;;
49396;SDS011;35615;41.410;2.194;2023-06-22T05:34:30;10.73;;;4.00;;
49396;SDS011;35615;41.410;2.194;2023-06-22T05:37:01;12.52;;;3.88;;
49396;SDS011;35615;41.410;2.194;2023-06-22T05:39:33;10.90;;;3.53;;
49396;SDS011;35615;41.410;2.194;2023-06-22T05:42:07;8.90;;;3.50;;
49396;SDS011;35615;41.410;2.194;2023-06-22T05:44:39;10.20;;;3.90;;
49396;SDS011;35615;41.410;2.194;2023-06-22T05:47:08;10.80;;;4.20;;
49396;SDS011;35615;41.410;2.194;2023-06-22T05:49:35;10.25;;;3.60;;
49396;SDS011;35615;41.410;2.194;2023-06-22T05:52:08;12.57;;;4.05;;
49396;SDS011;35615;41.410;2.194;2023-06-22T05:54:35;9.68;;;4.43;;
49396;SDS011;35615;41.410;2.194;2023-06-22T05:57:08;11.73;;;4.82;;
49396;SDS011;35615;41.410;2.194;2023-06-22T05:59:39;12.73;;;3.65;;
49396;SDS011;35615;41.410;2.194;2023-06-22T06:02:06;16.20;;;4.45;;
49396;SDS011;35615;41.410;2.194;2023-06-22T06:04:39;12.68;;;3.95;;
49396;SDS011;35615;41.410;2.194;2023-06-22T06:07:12;14.32;;;4.10;;
49396;SDS011;35615;41.410;2.194;2023-06-22T06:09:41;8.57;;;3.70;;
49396;SDS011;35615;41.410;2.194;2023-06-22T06:12:08;13.32;;;3.97;;
49396;SDS011;35615;41.410;2.194;2023-06-22T06:14:38;9.65;;;3.75;;
49396;SDS011;35615;41.410;2.194;2023-06-22T06:17:05;8.63;;;3.78;;
49396;SDS011;35615;41.410;2.194;2023-06-22T06:19:32;9.00;;;3.67;;
49396;SDS011;35615;41.410;2.194;2023-06-22T06:22:04;11.75;;;4.10;;
49396;SDS011;35615;41.410;2.194;2023-06-22T06:24:36;9.43;;;4.30;;
49396;SDS011;35615;41.410;2.194;2023-06-22T06:27:12;12.68;;;3.97;;
49396;SDS011;35615;41.410;2.194;2023-06-22T06:29:43;14.90;;;4.30;;
49396;SDS011;35615;41.410;2.194;2023-06-22T06:32:12;14.70;;;4.53;;
49396;SDS011;35615;41.410;2.194;2023-06-22T06:34:46;11.60;;;3.75;;
49396;SDS011;35615;41.410;2.194;2023-06-22T06:37:14;12.65;;;3.65;;
49396;SDS011;35615;41.410;2.194;2023-06-22T06:39:48;15.27;;;3.70;;
49396;SDS011;35615;41.410;2.194;2023-06-22T06:42:18;13.43;;;3.63;;
49396;SDS011;35615;41.410;2.194;2023-06-22T06:44:51;16.35;;;4.22;;
49396;SDS011;35615;41.410;2.194;2023-06-22T06:47:22;10.20;;;3.90;;
49396;SDS011;35615;41.410;2.194;2023-06-22T06:49:52;9.88;;;3.60;;
49396;SDS011;35615;41.410;2.194;2023-06-22T06:52:20;8.85;;;3.90;;
49396;SDS011;35615;41.410;2.194;2023-06-22T06:54:47;12.30;;;3.78;;
49396;SDS011;35615;41.410;2.194;2023-06-22T06:57:17;10.43;;;3.55;;
49396;SDS011;35615;41.410;2.194;2023-06-22T06:59:49;9.48;;;3.38;;
49396;SDS011;35615;41.410;2.194;2023-06-22T07:02:30;10.70;;;3.50;;
49396;SDS011;35615;41.410;2.194;2023-06-22T07:05:05;10.50;;;3.75;;
49396;SDS011;35615;41.410;2.194;2023-06-22T07:07:47;11.40;;;3.45;;
49396;SDS011;35615;41.410;2.194;2023-06-22T07:10:28;9.02;;;3.85;;
49396;SDS011;35615;41.410;2.194;2023-06-22T07:13:10;7.72;;;3.15;;
49396;SDS011;35615;41.410;2.194;2023-06-22T07:15:40;13.75;;;3.85;;
49396;SDS011;35615;41.410;2.194;2023-06-22T07:18:15;16.60;;;3.53;;
49396;SDS011;35615;41.410;2.194;2023-06-22T07:20:45;8.75;;;3.33;;
49396;SDS011;35615;41.410;2.194;2023-06-22T07:23:14;16.00;;;3.97;;
49396;SDS011;35615;41.410;2.194;2023-06-22T07:25:45;6.45;;;3.20;;
49396;SDS011;35615;41.410;2.194;2023-06-22T07:28:15;11.75;;;3.45;;
49396;SDS011;35615;41.410;2.194;2023-06-22T07:30:52;8.43;;;3.22;;
49396;SDS011;35615;41.410;2.194;2023-06-22T07:33:29;10.30;;;3.83;;
49396;SDS011;35615;41.410;2.194;2023-06-22T07:35:59;13.75;;;4.47;;
49396;SDS011;35615;41.410;2.194;2023-06-22T07:38:36;8.95;;;4.30;;
49396;SDS011;35615;41.410;2.194;2023-06-22T07:41:21;8.52;;;3.38;;
49396;SDS011;35615;41.410;2.194;2023-06-22T07:43:56;16.05;;;4.15;;
49396;SDS011;35615;41.410;2.194;2023-06-22T07:46:41;13.40;;;4.15;;
49396;SDS011;35615;41.410;2.194;2023-06-22T07:49:14;9.75;;;3.78;;
49396;SDS011;35615;41.410;2.194;2023-06-22T07:51:56;9.43;;;3.20;;
49396;SDS011;35615;41.410;2.194;2023-06-22T07:54:38;6.60;;;3.63;;
49396;SDS011;35615;41.410;2.194;2023-06-22T07:57:12;10.85;;;4.72;;
49396;SDS011;35615;41.410;2.194;2023-06-22T08:00:06;16.67;;;5.43;;
49396;SDS011;35615;41.410;2.194;2023-06-22T08:02:44;23.80;;;7.65;;
49396;SDS011;35615;41.410;2.194;2023-06-22T08:05:19;26.20;;;8.10;;
49396;SDS011;35615;41.410;2.194;2023-06-22T08:10:33;31.00;;;7.72;;
49396;SDS011;35615;41.410;2.194;2023-06-22T08:13:12;19.05;;;9.50;;
49396;SDS011;35615;41.410;2.194;2023-06-22T08:15:58;26.67;;;9.65;;
49396;SDS011;35615;41.410;2.194;2023-06-22T08:18:42;30.15;;;9.85;;
49396;SDS011;35615;41.410;2.194;2023-06-22T08:21:21;37.65;;;10.70;;
49396;SDS011;35615;41.410;2.194;2023-06-22T08:23:58;27.92;;;10.13;;
49396;SDS011;35615;41.410;2.194;2023-06-22T08:26:53;31.48;;;10.38;;
49396;SDS011;35615;41.410;2.194;2023-06-22T08:30:01;28.38;;;10.55;;
49396;SDS011;35615;41.410;2.194;2023-06-22T08:32:51;19.67;;;8.10;;
49396;SDS011;35615;41.410;2.194;2023-06-22T08:35:32;31.17;;;6.70;;
49396;SDS011;35615;41.410;2.194;2023-06-22T08:41:18;8.93;;;3.55;;
49396;SDS011;35615;41.410;2.194;2023-06-22T08:44:11;9.35;;;3.30;;
49396;SDS011;35615;41.410;2.194;2023-06-22T08:46:57;10.55;;;3.17;;
49396;SDS011;35615;41.410;2.194;2023-06-22T08:49:34;15.85;;;4.10;;
49396;SDS011;35615;41.410;2.194;2023-06-22T08:52:16;6.97;;;3.17;;
49396;SDS011;35615;41.410;2.194;2023-06-22T08:54:52;10.18;;;3.03;;
49396;SDS011;35615;41.410;2.194;2023-06-22T08:57:26;8.68;;;3.85;;
49396;SDS011;35615;41.410;2.194;2023-06-22T08:59:56;15.95;;;3.90;;
49396;SDS011;35615;41.410;2.194;2023-06-22T09:02:36;7.28;;;3.75;;
49396;SDS011;35615;41.410;2.194;2023-06-22T09:05:13;9.43;;;3.47;;
49396;SDS011;35615;41.410;2.194;2023-06-22T09:07:57;7.35;;;3.85;;
49396;SDS011;35615;41.410;2.194;2023-06-22T09:10:44;29.30;;;8.98;;
49396;SDS011;35615;41.410;2.194;2023-06-22T09:13:19;26.63;;;7.75;;
49396;SDS011;35615;41.410;2.194;2023-06-22T09:16:00;25.27;;;8.18;;
49396;SDS011;35615;41.410;2.194;2023-06-22T09:18:31;22.88;;;8.82;;
49396;SDS011;35615;41.410;2.194;2023-06-22T09:21:01;26.15;;;8.35;;
49396;SDS011;35615;41.410;2.194;2023-06-22T09:23:37;26.63;;;8.00;;
49396;SDS011;35615;41.410;2.194;2023-06-22T09:26:09;23.65;;;7.88;;
49396;SDS011;35615;41.410;2.194;2023-06-22T09:28:48;27.80;;;8.27;;
49396;SDS011;35615;41.410;2.194;2023-06-22T09:31:16;22.73;;;8.40;;
49396;SDS011;35615;41.410;2.194;2023-06-22T09:33:56;19.92;;;7.45;;
49396;SDS011;35615;41.410;2.194;2023-06-22T09:36:27;26.92;;;8.02;;
49396;SDS011;35615;41.410;2.194;2023-06-22T09:39:02;29.58;;;7.82;;
49396;SDS011;35615;41.410;2.194;2023-06-22T09:41:33;21.70;;;8.20;;
49396;SDS011;35615;41.410;2.194;2023-06-22T09:44:07;28.20;;;8.60;;
49396;SDS011;35615;41.410;2.194;2023-06-22T09:46:41;21.58;;;8.32;;
49396;SDS011;35615;41.410;2.194;2023-06-22T09:49:14;28.40;;;7.40;;
49396;SDS011;35615;41.410;2.194;2023-06-22T09:51:42;24.38;;;7.68;;
49396;SDS011;35615;41.410;2.194;2023-06-22T09:54:10;21.48;;;7.57;;
49396;SDS011;35615;41.410;2.194;2023-06-22T09:56:44;18.77;;;7.80;;
49396;SDS011;35615;41.410;2.194;2023-06-22T09:59:16;16.92;;;6.57;;
49396;SDS011;35615;41.410;2.194;2023-06-22T10:01:47;18.65;;;6.22;;
49396;SDS011;35615;41.410;2.194;2023-06-22T10:04:16;27.13;;;7.75;;
49396;SDS011;35615;41.410;2.194;2023-06-22T10:07:03;17.52;;;6.43;;
49396;SDS011;35615;41.410;2.194;2023-06-22T10:09:51;17.98;;;5.72;;
49396;SDS011;35615;41.410;2.194;2023-06-22T10:12:18;12.40;;;4.18;;
49396;SDS011;35615;41.410;2.194;2023-06-22T10:14:46;11.00;;;4.55;;
49396;SDS011;35615;41.410;2.194;2023-06-22T10:17:14;17.98;;;4.47;;
49396;SDS011;35615;41.410;2.194;2023-06-22T10:19:41;15.43;;;4.55;;
49396;SDS011;35615;41.410;2.194;2023-06-22T10:22:09;12.73;;;5.30;;
49396;SDS011;35615;41.410;2.194;2023-06-22T10:24:45;15.85;;;5.32;;
49396;SDS011;35615;41.410;2.194;2023-06-22T10:27:17;15.57;;;4.38;;
49396;SDS011;35615;41.410;2.194;2023-06-22T10:29:45;12.73;;;3.70;;
49396;SDS011;35615;41.410;2.194;2023-06-22T10:32:16;13.85;;;4.35;;
49396;SDS011;35615;41.410;2.194;2023-06-22T10:34:48;14.10;;;3.63;;
49396;SDS011;35615;41.410;2.194;2023-06-22T10:37:18;18.35;;;5.80;;
49396;SDS011;35615;41.410;2.194;2023-06-22T10:40:01;10.38;;;4.85;;
49396;SDS011;35615;41.410;2.194;2023-06-22T10:42:45;8.30;;;4.15;;
49396;SDS011;35615;41.410;2.194;2023-06-22T10:45:36;7.55;;;3.30;;
49396;SDS011;35615;41.410;2.194;2023-06-22T10:48:10;14.18;;;4.15;;
49396;SDS011;35615;41.410;2.194;2023-06-22T10:53:42;20.27;;;4.00;;
49396;SDS011;35615;41.410;2.194;2023-06-22T10:56:10;10.70;;;4.30;;
49396;SDS011;35615;41.410;2.194;2023-06-22T10:58:51;9.10;;;4.18;;
49396;SDS011;35615;41.410;2.194;2023-06-22T11:01:25;14.48;;;6.30;;
49396;SDS011;35615;41.410;2.194;2023-06-22T11:04:14;9.82;;;4.75;;
49396;SDS011;35615;41.410;2.194;2023-06-22T11:06:52;6.30;;;3.75;;
49396;SDS011;35615;41.410;2.194;2023-06-22T11:09:24;13.23;;;4.32;;
49396;SDS011;35615;41.410;2.194;2023-06-22T11:11:57;12.70;;;5.00;;
49396;SDS011;35615;41.410;2.194;2023-06-22T11:14:30;18.70;;;4.40;;
49396;SDS011;35615;41.410;2.194;2023-06-22T11:17:03;10.35;;;4.40;;
49396;SDS011;35615;41.410;2.194;2023-06-22T11:19:57;15.93;;;5.07;;
49396;SDS011;35615;41.410;2.194;2023-06-22T11:22:41;17.90;;;3.83;;
49396;SDS011;35615;41.410;2.194;2023-06-22T11:25:20;16.17;;;4.72;;
49396;SDS011;35615;41.410;2.194;2023-06-22T11:27:51;11.80;;;4.43;;
49396;SDS011;35615;41.410;2.194;2023-06-22T11:30:25;14.90;;;4.50;;
49396;SDS011;35615;41.410;2.194;2023-06-22T11:33:02;9.52;;;4.30;;
49396;SDS011;35615;41.410;2.194;2023-06-22T11:35:33;16.98;;;4.07;;
49396;SDS011;35615;41.410;2.194;2023-06-22T11:38:01;12.25;;;3.40;;
49396;SDS011;35615;41.410;2.194;2023-06-22T11:40:38;15.85;;;5.88;;
49396;SDS011;35615;41.410;2.194;2023-06-22T11:43:22;8.30;;;4.55;;
49396;SDS011;35615;41.410;2.194;2023-06-22T11:45:54;24.55;;;4.05;;
49396;SDS011;35615;41.410;2.194;2023-06-22T11:50:53;17.30;;;4.15;;
49396;SDS011;35615;41.410;2.194;2023-06-22T11:53:27;13.38;;;4.50;;
49396;SDS011;35615;41.410;2.194;2023-06-22T11:56:01;12.00;;;3.40;;
49396;SDS011;35615;41.410;2.194;2023-06-22T11:58:32;14.93;;;4.38;;
49396;SDS011;35615;41.410;2.194;2023-06-22T12:01:06;11.10;;;4.15;;
49396;SDS011;35615;41.410;2.194;2023-06-22T12:03:34;11.10;;;5.05;;
49396;SDS011;35615;41.410;2.194;2023-06-22T12:06:03;11.30;;;4.35;;
49396;SDS011;35615;41.410;2.194;2023-06-22T12:08:34;8.88;;;3.95;;
49396;SDS011;35615;41.410;2.194;2023-06-22T12:11:24;11.25;;;3.55;;
49396;SDS011;35615;41.410;2.194;2023-06-22T12:13:55;9.40;;;4.13;;
49396;SDS011;35615;41.410;2.194;2023-06-22T12:16:37;10.55;;;4.60;;
49396;SDS011;35615;41.410;2.194;2023-06-22T12:19:06;21.15;;;5.10;;
49396;SDS011;35615;41.410;2.194;2023-06-22T12:21:42;18.50;;;4.95;;
49396;SDS011;35615;41.410;2.194;2023-06-22T12:24:16;16.92;;;4.68;;
49396;SDS011;35615;41.410;2.194;2023-06-22T12:26:44;11.23;;;2.85;;
49396;SDS011;35615;41.410;2.194;2023-06-22T12:29:14;9.57;;;3.35;;
49396;SDS011;35615;41.410;2.194;2023-06-22T12:31:56;13.65;;;3.70;;
49396;SDS011;35615;41.410;2.194;2023-06-22T12:34:24;12.65;;;4.25;;
49396;SDS011;35615;41.410;2.194;2023-06-22T12:36:57;15.23;;;4.57;;
49396;SDS011;35615;41.410;2.194;2023-06-22T12:39:29;4.65;;;3.08;;
49396;SDS011;35615;41.410;2.194;2023-06-22T12:42:09;13.38;;;3.70;;
49396;SDS011;35615;41.410;2.194;2023-06-22T12:44:44;14.15;;;3.65;;
49396;SDS011;35615;41.410;2.194;2023-06-22T12:47:15;14.13;;;4.40;;
49396;SDS011;35615;41.410;2.194;2023-06-22T12:49:44;14.93;;;3.88;;
49396;SDS011;35615;41.410;2.194;2023-06-22T12:52:16;11.40;;;3.72;;
49396;SDS011;35615;41.410;2.194;2023-06-22T12:54:44;9.77;;;2.90;;
49396;SDS011;35615;41.410;2.194;2023-06-22T12:57:21;8.73;;;3.53;;
49396;SDS011;35615;41.410;2.194;2023-06-22T12:59:52;13.13;;;3.78;;
49396;SDS011;35615;41.410;2.194;2023-06-22T13:02:46;10.50;;;3.15;;
49396;SDS011;35615;41.410;2.194;2023-06-22T13:05:31;8.70;;;3.50;;
49396;SDS011;35615;41.410;2.194;2023-06-22T13:08:07;8.95;;;4.32;;
49396;SDS011;35615;41.410;2.194;2023-06-22T13:10:52;11.50;;;3.38;;
49396;SDS011;35615;41.410;2.194;2023-06-22T13:13:32;12.93;;;4.57;;
49396;SDS011;35615;41.410;2.194;2023-06-22T13:16:06;11.30;;;3.95;;
49396;SDS011;35615;41.410;2.194;2023-06-22T13:18:39;8.45;;;2.92;;
49396;SDS011;35615;41.410;2.194;2023-06-22T13:21:11;11.40;;;3.40;;
49396;SDS011;35615;41.410;2.194;2023-06-22T13:23:55;4.30;;;2.70;;
49396;SDS011;35615;41.410;2.194;2023-06-22T13:26:27;8.15;;;3.00;;
49396;SDS011;35615;41.410;2.194;2023-06-22T13:29:03;4.75;;;3.10;;
49396;SDS011;35615;41.410;2.194;2023-06-22T13:31:57;10.23;;;3.40;;
49396;SDS011;35615;41.410;2.194;2023-06-22T13:34:39;11.85;;;3.53;;
49396;SDS011;35615;41.410;2.194;2023-06-22T13:37:21;9.15;;;2.83;;
49396;SDS011;35615;41.410;2.194;2023-06-22T13:40:05;8.05;;;3.67;;
49396;SDS011;35615;41.410;2.194;2023-06-22T13:42:49;7.00;;;2.90;;
49396;SDS011;35615;41.410;2.194;2023-06-22T13:49:06;6.80;;;2.70;;
49396;SDS011;35615;41.410;2.194;2023-06-22T13:51:57;6.28;;;2.67;;
49396;SDS011;35615;41.410;2.194;2023-06-22T13:54:36;10.30;;;3.28;;
49396;SDS011;35615;41.410;2.194;2023-06-22T14:01:01;6.55;;;2.83;;
49396;SDS011;35615;41.410;2.194;2023-06-22T14:07:04;5.47;;;2.85;;
49396;SDS011;35615;41.410;2.194;2023-06-22T14:10:05;9.52;;;3.75;;
49396;SDS011;35615;41.410;2.194;2023-06-22T14:16:10;21.27;;;3.60;;
49396;SDS011;35615;41.410;2.194;2023-06-22T14:18:49;14.48;;;3.58;;
49396;SDS011;35615;41.410;2.194;2023-06-22T14:21:26;13.98;;;3.45;;
49396;SDS011;35615;41.410;2.194;2023-06-22T14:23:56;11.27;;;3.78;;
49396;SDS011;35615;41.410;2.194;2023-06-22T14:26:31;14.00;;;3.33;;
49396;SDS011;35615;41.410;2.194;2023-06-22T14:31:47;11.35;;;4.43;;
49396;SDS011;35615;41.410;2.194;2023-06-22T14:34:20;15.68;;;4.65;;
49396;SDS011;35615;41.410;2.194;2023-06-22T14:36:55;12.05;;;3.75;;
49396;SDS011;35615;41.410;2.194;2023-06-22T14:42:09;12.40;;;2.90;;
49396;SDS011;35615;41.410;2.194;2023-06-22T14:44:46;12.75;;;3.92;;
49396;SDS011;35615;41.410;2.194;2023-06-22T14:47:18;22.60;;;4.25;;
49396;SDS011;35615;41.410;2.194;2023-06-22T14:50:03;12.45;;;3.17;;
49396;SDS011;35615;41.410;2.194;2023-06-22T14:52:35;9.82;;;3.50;;
49396;SDS011;35615;41.410;2.194;2023-06-22T14:55:05;15.02;;;3.50;;
49396;SDS011;35615;41.410;2.194;2023-06-22T14:57:45;25.55;;;3.75;;
49396;SDS011;35615;41.410;2.194;2023-06-22T15:00:16;11.27;;;3.17;;
49396;SDS011;35615;41.410;2.194;2023-06-22T15:02:57;10.27;;;3.10;;
49396;SDS011;35615;41.410;2.194;2023-06-22T15:05:26;17.15;;;4.45;;
49396;SDS011;35615;41.410;2.194;2023-06-22T15:07:58;10.60;;;3.33;;
49396;SDS011;35615;41.410;2.194;2023-06-22T15:10:26;9.20;;;3.03;;
49396;SDS011;35615;41.410;2.194;2023-06-22T15:12:56;13.40;;;2.88;;
49396;SDS011;35615;41.410;2.194;2023-06-22T15:15:38;17.83;;;3.40;;
49396;SDS011;35615;41.410;2.194;2023-06-22T15:18:20;17.02;;;3.22;;
49396;SDS011;35615;41.410;2.194;2023-06-22T15:20:56;24.88;;;3.22;;
49396;SDS011;35615;41.410;2.194;2023-06-22T15:23:39;14.57;;;3.45;;
49396;SDS011;35615;41.410;2.194;2023-06-22T15:26:06;21.58;;;3.53;;
49396;SDS011;35615;41.410;2.194;2023-06-22T15:28:39;12.93;;;2.78;;
49396;SDS011;35615;41.410;2.194;2023-06-22T15:31:20;8.80;;;3.45;;
49396;SDS011;35615;41.410;2.194;2023-06-22T15:33:52;12.43;;;3.28;;
49396;SDS011;35615;41.410;2.194;2023-06-22T15:36:22;8.57;;;3.13;;
49396;SDS011;35615;41.410;2.194;2023-06-22T15:38:50;8.93;;;3.17;;
49396;SDS011;35615;41.410;2.194;2023-06-22T15:41:23;10.57;;;3.43;;
49396;SDS011;35615;41.410;2.194;2023-06-22T15:44:06;13.13;;;3.25;;
49396;SDS011;35615;41.410;2.194;2023-06-22T15:46:41;5.55;;;3.20;;
49396;SDS011;35615;41.410;2.194;2023-06-22T15:49:20;11.32;;;3.20;;
49396;SDS011;35615;41.410;2.194;2023-06-22T15:51:50;12.82;;;4.05;;
49396;SDS011;35615;41.410;2.194;2023-06-22T15:54:19;12.05;;;2.90;;
49396;SDS011;35615;41.410;2.194;2023-06-22T15:56:48;5.43;;;3.03;;